createdAt,value
2023-04-18T00:00:39.974Z,16.70
2023-04-18T00:01:42.170Z,14.52
2023-04-18T00:02:44.485Z,14.40
2023-04-18T00:03:47.587Z,13.20
2023-04-18T00:04:50.409Z,13.90
2023-04-18T00:05:52.108Z,13.90
2023-04-18T00:06:53.756Z,14.18
2023-04-18T00:07:56.312Z,14.30
2023-04-18T00:08:57.932Z,19.40
2023-04-18T00:09:59.440Z,20.00
2023-04-18T00:11:00.980Z,18.42
2023-04-18T00:12:04.230Z,19.42
2023-04-18T00:13:06.041Z,19.70
2023-04-18T00:14:08.588Z,18.70
2023-04-18T00:15:11.192Z,17.58
2023-04-18T00:16:13.343Z,18.33
2023-04-18T00:17:16.151Z,20.25
2023-04-18T00:18:17.757Z,20.35
2023-04-18T00:19:20.502Z,15.13
2023-04-18T00:20:22.410Z,14.35
2023-04-18T00:21:25.735Z,14.35
2023-04-18T00:22:28.630Z,14.18
2023-04-18T00:23:30.699Z,13.98
2023-04-18T00:24:32.881Z,14.77
2023-04-18T00:25:34.554Z,13.00
2023-04-18T00:26:36.597Z,12.63
2023-04-18T00:27:39.189Z,14.18
2023-04-18T00:28:40.956Z,12.05
2023-04-18T00:29:42.742Z,13.02
2023-04-18T00:30:44.525Z,12.80
2023-04-18T00:31:46.119Z,13.13
2023-04-18T00:32:47.969Z,14.20
2023-04-18T00:33:49.546Z,14.18
2023-04-18T00:34:51.427Z,13.93
2023-04-18T00:35:53.901Z,15.35
2023-04-18T00:36:55.654Z,14.75
2023-04-18T00:37:57.251Z,16.63
2023-04-18T00:38:58.928Z,15.27
2023-04-18T00:40:00.686Z,14.73
2023-04-18T00:41:02.304Z,15.98
2023-04-18T00:42:04.247Z,16.38
2023-04-18T00:43:07.396Z,16.58
2023-04-18T00:44:09.069Z,15.55
2023-04-18T00:45:11.214Z,16.83
2023-04-18T00:46:13.467Z,15.85
2023-04-18T00:47:18.107Z,20.80
2023-04-18T00:48:20.487Z,20.15
2023-04-18T00:49:22.177Z,19.70
2023-04-18T00:50:24.067Z,20.50
2023-04-18T00:51:25.700Z,21.52
2023-04-18T00:52:27.473Z,22.63
2023-04-18T00:53:29.292Z,21.30
2023-04-18T00:54:30.965Z,22.25
2023-04-18T00:55:32.544Z,21.80
2023-04-18T00:56:34.833Z,19.67
2023-04-18T00:57:36.612Z,20.67
2023-04-18T00:58:40.626Z,20.08
2023-04-18T00:59:42.417Z,20.45
2023-04-18T01:00:44.370Z,19.58
2023-04-18T01:01:46.347Z,18.70
2023-04-18T01:02:49.900Z,18.95
2023-04-18T01:03:51.883Z,18.33
2023-04-18T01:04:53.538Z,17.27
2023-04-18T01:05:55.493Z,17.90
2023-04-18T01:06:57.054Z,17.48
2023-04-18T01:08:01.257Z,16.90
2023-04-18T01:09:05.453Z,15.55
2023-04-18T01:10:07.616Z,16.73
2023-04-18T01:11:09.281Z,15.50
2023-04-18T01:12:11.078Z,16.77
2023-04-18T01:13:14.471Z,15.60
2023-04-18T01:14:16.106Z,15.15
2023-04-18T01:15:17.668Z,15.40
2023-04-18T01:16:19.282Z,16.67
2023-04-18T01:17:22.587Z,18.38
2023-04-18T01:18:24.751Z,17.88
2023-04-18T01:19:26.386Z,17.20
2023-04-18T01:20:27.978Z,18.23
2023-04-18T01:21:43.739Z,19.25
2023-04-18T01:22:45.604Z,19.83
2023-04-18T01:23:51.308Z,20.90
2023-04-18T01:24:53.242Z,20.67
2023-04-18T01:25:54.829Z,21.00
2023-04-18T01:26:57.211Z,21.60
2023-04-18T01:27:58.857Z,22.60
2023-04-18T01:29:00.466Z,21.23
2023-04-18T01:30:02.191Z,18.35
2023-04-18T01:31:04.226Z,16.20
2023-04-18T01:32:06.506Z,15.00
2023-04-18T01:33:08.856Z,15.40
2023-04-18T01:34:10.661Z,13.77
2023-04-18T01:35:12.525Z,15.10
2023-04-18T01:36:14.508Z,15.75
2023-04-18T01:37:16.097Z,16.65
2023-04-18T01:38:17.774Z,15.70
2023-04-18T01:39:19.383Z,17.15
2023-04-18T01:40:21.213Z,17.67
2023-04-18T01:41:22.935Z,16.52
2023-04-18T01:42:24.509Z,16.85
2023-04-18T01:43:26.072Z,16.02
2023-04-18T01:44:27.742Z,17.90
2023-04-18T01:45:29.331Z,16.63
2023-04-18T01:46:31.420Z,17.00
2023-04-18T01:47:33.092Z,16.50
2023-04-18T01:48:34.741Z,18.70
2023-04-18T01:49:36.468Z,17.48
2023-04-18T01:50:38.090Z,19.50
2023-04-18T01:51:39.627Z,19.63
2023-04-18T01:52:41.473Z,19.27
2023-04-18T01:53:43.069Z,19.38
2023-04-18T01:54:44.613Z,18.85
2023-04-18T01:55:46.228Z,20.20
2023-04-18T01:56:47.945Z,22.30
2023-04-18T01:57:50.981Z,22.45
2023-04-18T01:58:52.571Z,22.90
2023-04-18T01:59:54.303Z,25.40
2023-04-18T02:00:58.622Z,25.65
2023-04-18T02:02:00.393Z,26.35
2023-04-18T02:03:02.347Z,27.33
2023-04-18T02:04:04.127Z,26.70
2023-04-18T02:05:06.000Z,26.85
2023-04-18T02:06:07.801Z,27.58
2023-04-18T02:07:09.408Z,28.73
2023-04-18T02:08:11.812Z,26.65
2023-04-18T02:09:14.289Z,25.45
2023-04-18T02:10:15.966Z,25.35
2023-04-18T02:11:17.514Z,22.63
2023-04-18T02:12:19.289Z,22.40
2023-04-18T02:13:20.926Z,25.25
2023-04-18T02:14:22.439Z,23.25
2023-04-18T02:15:24.577Z,25.35
2023-04-18T02:16:26.320Z,23.65
2023-04-18T02:17:28.481Z,24.48
2023-04-18T02:18:30.689Z,22.95
2023-04-18T02:19:32.196Z,22.38
2023-04-18T02:20:33.834Z,21.30
2023-04-18T02:21:35.756Z,19.30
2023-04-18T02:22:40.353Z,18.98
2023-04-18T02:23:42.017Z,20.55
2023-04-18T02:24:43.544Z,19.52
2023-04-18T02:25:45.414Z,18.85
2023-04-18T02:26:46.911Z,21.38
2023-04-18T02:27:48.441Z,20.75
2023-04-18T02:28:50.018Z,21.17
2023-04-18T02:29:51.732Z,21.02
2023-04-18T02:30:53.272Z,20.30
2023-04-18T02:31:54.771Z,20.60
2023-04-18T02:32:59.108Z,22.60
2023-04-18T02:34:00.680Z,21.85
2023-04-18T02:35:02.308Z,21.92
2023-04-18T02:36:04.133Z,20.45
2023-04-18T02:37:05.635Z,20.38
2023-04-18T02:38:07.531Z,21.50
2023-04-18T02:39:09.253Z,20.85
2023-04-18T02:40:11.102Z,21.70
2023-04-18T02:41:15.391Z,20.88
2023-04-18T02:42:17.104Z,22.15
2023-04-18T02:43:18.615Z,23.90
2023-04-18T02:44:20.641Z,24.33
2023-04-18T02:45:22.313Z,22.77
2023-04-18T02:46:23.882Z,23.27
2023-04-18T02:47:25.718Z,22.85
2023-04-18T02:48:27.374Z,23.88
2023-04-18T02:49:28.952Z,24.55
2023-04-18T02:50:30.709Z,23.55
2023-04-18T02:51:32.581Z,22.00
2023-04-18T02:52:34.107Z,22.95
2023-04-18T02:53:38.950Z,24.05
2023-04-18T02:54:40.751Z,25.75
2023-04-18T02:55:42.548Z,23.58
2023-04-18T02:56:44.102Z,24.88
2023-04-18T02:57:45.836Z,24.38
2023-04-18T02:58:48.147Z,24.52
2023-04-18T02:59:49.667Z,23.30
2023-04-18T03:00:53.433Z,23.58
2023-04-18T03:01:55.053Z,21.15
2023-04-18T03:02:57.063Z,22.90
2023-04-18T03:03:58.803Z,23.98
2023-04-18T03:05:00.459Z,23.45
2023-04-18T03:06:02.493Z,23.17
2023-04-18T03:07:04.027Z,21.38
2023-04-18T03:08:05.696Z,22.10
2023-04-18T03:09:07.287Z,23.42
2023-04-18T03:10:09.136Z,21.50
2023-04-18T03:11:10.760Z,23.00
2023-04-18T03:12:12.353Z,23.92
2023-04-18T03:13:16.263Z,23.85
2023-04-18T03:14:18.007Z,23.13
2023-04-18T03:15:20.032Z,22.73
2023-04-18T03:16:22.256Z,20.88
2023-04-18T03:17:24.092Z,21.88
2023-04-18T03:18:25.870Z,22.17
2023-04-18T03:19:27.423Z,21.73
2023-04-18T03:20:29.074Z,22.30
2023-04-18T03:21:30.894Z,22.60
2023-04-18T03:22:32.563Z,24.85
2023-04-18T03:23:34.167Z,22.95
2023-04-18T03:24:35.786Z,21.60
2023-04-18T03:25:37.316Z,21.63
2023-04-18T03:26:39.241Z,23.23
2023-04-18T03:27:40.910Z,23.55
2023-04-18T03:28:42.522Z,25.92
2023-04-18T03:29:44.139Z,24.00
2023-04-18T03:30:45.929Z,23.45
2023-04-18T03:31:47.602Z,22.20
2023-04-18T03:32:49.541Z,24.00
2023-04-18T03:33:51.720Z,24.30
2023-04-18T03:34:53.307Z,24.55
2023-04-18T03:35:54.867Z,23.65
2023-04-18T03:36:56.778Z,23.25
2023-04-18T03:37:58.461Z,22.63
2023-04-18T03:38:59.970Z,21.90
2023-04-18T03:40:01.531Z,24.52
2023-04-18T03:41:03.198Z,24.02
2023-04-18T03:42:04.656Z,24.05
2023-04-18T03:43:06.159Z,23.50
2023-04-18T03:44:07.712Z,25.48
2023-04-18T03:45:09.560Z,24.25
2023-04-18T03:46:11.208Z,21.35
2023-04-18T03:47:15.581Z,23.33
2023-04-18T03:48:17.080Z,21.70
2023-04-18T03:49:18.768Z,22.83
2023-04-18T03:50:20.635Z,23.15
2023-04-18T03:51:22.361Z,23.02
2023-04-18T03:52:23.997Z,22.88
2023-04-18T03:53:25.608Z,21.63
2023-04-18T03:54:27.171Z,22.67
2023-04-18T03:55:28.685Z,23.63
2023-04-18T03:56:30.616Z,22.55
2023-04-18T03:57:32.169Z,20.67
2023-04-18T03:58:33.844Z,21.33
2023-04-18T03:59:35.917Z,21.90
2023-04-18T04:00:37.605Z,20.92
2023-04-18T04:01:39.472Z,21.23
2023-04-18T04:02:41.199Z,21.70
2023-04-18T04:03:42.996Z,23.48
2023-04-18T04:04:44.747Z,22.02
2023-04-18T04:05:46.488Z,21.80
2023-04-18T04:06:47.987Z,20.83
2023-04-18T04:07:49.687Z,23.38
2023-04-18T04:08:51.134Z,24.70
2023-04-18T04:09:52.634Z,22.20
2023-04-18T04:10:54.151Z,24.38
2023-04-18T04:11:55.872Z,24.33
2023-04-18T04:12:57.426Z,21.85
2023-04-18T04:13:58.907Z,21.77
2023-04-18T04:15:00.971Z,20.92
2023-04-18T04:16:02.737Z,20.52
2023-04-18T04:17:04.598Z,21.00
2023-04-18T04:18:06.520Z,20.90
2023-04-18T04:19:08.805Z,22.10
2023-04-18T04:20:11.091Z,21.50
2023-04-18T04:21:12.677Z,22.10
2023-04-18T04:22:14.672Z,22.05
2023-04-18T04:23:16.995Z,21.83
2023-04-18T04:24:18.818Z,22.80
2023-04-18T04:25:23.840Z,21.48
2023-04-18T04:26:26.229Z,23.33
2023-04-18T04:27:28.220Z,21.60
2023-04-18T04:28:31.118Z,21.45
2023-04-18T04:29:32.787Z,22.20
2023-04-18T04:30:34.305Z,23.35
2023-04-18T04:31:35.816Z,21.75
2023-04-18T04:32:38.981Z,22.20
2023-04-18T04:33:41.083Z,23.50
2023-04-18T04:34:42.755Z,22.77
2023-04-18T04:35:44.306Z,21.30
2023-04-18T04:36:46.738Z,21.58
2023-04-18T04:37:48.468Z,23.25
2023-04-18T04:38:50.107Z,22.38
2023-04-18T04:39:52.452Z,20.52
2023-04-18T04:40:55.990Z,21.65
2023-04-18T04:41:57.699Z,22.95
2023-04-18T04:42:59.807Z,20.88
2023-04-18T04:44:02.022Z,23.02
2023-04-18T04:45:03.821Z,21.42
2023-04-18T04:46:07.760Z,20.42
2023-04-18T04:47:09.443Z,21.55
2023-04-18T04:48:11.459Z,22.50
2023-04-18T04:49:12.996Z,21.58
2023-04-18T04:50:16.099Z,22.80
2023-04-18T04:51:17.744Z,23.15
2023-04-18T04:52:19.351Z,22.45
2023-04-18T04:53:21.043Z,29.83
2023-04-18T04:54:22.628Z,24.75
2023-04-18T04:55:24.763Z,22.95
2023-04-18T04:56:26.343Z,21.40
2023-04-18T04:57:27.947Z,20.30
2023-04-18T04:58:29.562Z,21.13
2023-04-18T04:59:31.513Z,22.85
2023-04-18T05:00:33.030Z,21.10
2023-04-18T05:01:34.787Z,20.60
2023-04-18T05:02:36.587Z,18.48
2023-04-18T05:03:38.496Z,19.08
2023-04-18T05:04:40.463Z,20.50
2023-04-18T05:05:42.228Z,21.02
2023-04-18T05:06:44.323Z,23.85
2023-04-18T05:07:45.880Z,22.08
2023-04-18T05:08:47.871Z,21.88
2023-04-18T05:09:49.677Z,23.00
2023-04-18T05:10:51.457Z,22.60
2023-04-18T05:11:52.981Z,23.65
2023-04-18T05:12:54.618Z,22.73
2023-04-18T05:13:56.200Z,21.40
2023-04-18T05:14:57.810Z,19.90
2023-04-18T05:15:59.366Z,18.85
2023-04-18T05:17:01.210Z,20.90
2023-04-18T05:18:03.558Z,20.83
2023-04-18T05:19:05.274Z,21.20
2023-04-18T05:20:07.084Z,19.20
2023-04-18T05:21:08.687Z,20.27
2023-04-18T05:22:10.814Z,19.85
2023-04-18T05:23:12.475Z,21.05
2023-04-18T05:24:14.414Z,20.00
2023-04-18T05:25:17.159Z,19.52
2023-04-18T05:26:18.936Z,20.20
2023-04-18T05:27:20.446Z,20.20
2023-04-18T05:28:23.861Z,19.00
2023-04-18T05:29:25.736Z,19.77
2023-04-18T05:30:27.368Z,18.88
2023-04-18T05:31:28.948Z,19.73
2023-04-18T05:32:30.910Z,21.02
2023-04-18T05:33:32.629Z,20.77
2023-04-18T05:34:38.575Z,21.48
2023-04-18T05:35:40.570Z,20.08
2023-04-18T05:36:42.240Z,20.10
2023-04-18T05:37:43.895Z,19.75
2023-04-18T05:38:45.728Z,19.83
2023-04-18T05:39:47.399Z,20.23
2023-04-18T05:40:51.184Z,20.48
2023-04-18T05:41:52.790Z,20.90
2023-04-18T05:42:54.504Z,21.35
2023-04-18T05:44:04.994Z,21.27
2023-04-18T05:45:08.028Z,21.45
2023-04-18T05:46:09.798Z,20.30
2023-04-18T05:47:11.424Z,19.65
2023-04-18T05:48:13.319Z,19.60
2023-04-18T05:49:15.356Z,20.70
2023-04-18T05:50:17.522Z,21.80
2023-04-18T05:51:19.091Z,20.45
2023-04-18T05:52:20.808Z,21.10
2023-04-18T05:53:22.345Z,20.40
2023-04-18T05:54:25.449Z,19.75
2023-04-18T05:55:27.021Z,20.83
2023-04-18T05:56:28.574Z,20.75
2023-04-18T05:57:30.928Z,20.58
2023-04-18T05:58:32.534Z,21.02
2023-04-18T05:59:34.029Z,20.77
2023-04-18T06:00:35.838Z,19.85
2023-04-18T06:01:37.371Z,21.55
2023-04-18T06:02:39.019Z,20.52
2023-04-18T06:03:41.760Z,20.90
2023-04-18T06:04:44.049Z,20.95
2023-04-18T06:05:46.152Z,18.20
2023-04-18T06:06:47.743Z,20.48
2023-04-18T06:07:49.514Z,18.98
2023-04-18T06:08:51.089Z,20.70
2023-04-18T06:09:54.101Z,20.08
2023-04-18T06:10:55.734Z,19.63
2023-04-18T06:11:58.124Z,20.02
2023-04-18T06:12:59.687Z,18.58
2023-04-18T06:14:01.760Z,19.70
2023-04-18T06:15:03.820Z,22.90
2023-04-18T06:16:05.507Z,20.75
2023-04-18T06:17:07.417Z,19.35
2023-04-18T06:18:09.116Z,19.33
2023-04-18T06:19:10.790Z,19.98
2023-04-18T06:20:12.490Z,22.13
2023-04-18T06:21:14.216Z,21.20
2023-04-18T06:22:17.961Z,21.02
2023-04-18T06:23:19.550Z,19.80
2023-04-18T06:24:21.318Z,18.33
2023-04-18T06:25:22.923Z,20.48
2023-04-18T06:26:24.801Z,19.73
2023-04-18T06:27:31.653Z,21.02
2023-04-18T06:28:33.705Z,19.85
2023-04-18T06:29:36.220Z,19.13
2023-04-18T06:30:39.110Z,19.63
2023-04-18T06:31:42.309Z,18.30
2023-04-18T06:32:44.673Z,18.85
2023-04-18T06:33:46.627Z,19.95
2023-04-18T06:34:48.308Z,18.92
2023-04-18T06:35:49.981Z,19.58
2023-04-18T06:36:51.841Z,19.00
2023-04-18T06:37:53.592Z,19.83
2023-04-18T06:38:55.301Z,20.05
2023-04-18T06:39:56.899Z,18.33
2023-04-18T06:40:58.622Z,20.33
2023-04-18T06:42:02.436Z,20.88
2023-04-18T06:43:04.233Z,19.92
2023-04-18T06:44:05.819Z,20.05
2023-04-18T06:45:07.745Z,19.48
2023-04-18T06:46:09.410Z,20.55
2023-04-18T06:47:11.449Z,20.67
2023-04-18T06:48:13.211Z,23.08
2023-04-18T06:49:14.912Z,18.80
2023-04-18T06:50:17.227Z,19.92
2023-04-18T06:51:18.909Z,19.50
2023-04-18T06:52:20.652Z,18.20
2023-04-18T06:53:22.251Z,19.95
2023-04-18T06:54:24.008Z,19.48
2023-04-18T06:55:25.568Z,21.30
2023-04-18T06:56:27.273Z,19.15
2023-04-18T06:57:29.081Z,18.30
2023-04-18T06:58:30.815Z,18.75
2023-04-18T06:59:32.407Z,19.80
2023-04-18T07:00:34.380Z,17.83
2023-04-18T07:01:40.146Z,17.13
2023-04-18T07:02:41.820Z,17.33
2023-04-18T07:03:43.602Z,19.30
2023-04-18T07:04:45.619Z,19.00
2023-04-18T07:05:47.170Z,18.38
2023-04-18T07:06:48.750Z,18.08
2023-04-18T07:07:50.493Z,19.00
2023-04-18T07:08:54.420Z,19.77
2023-04-18T07:09:56.188Z,19.00
2023-04-18T07:10:57.786Z,19.95
2023-04-18T07:11:59.350Z,18.80
2023-04-18T07:13:00.905Z,19.73
2023-04-18T07:14:02.425Z,19.13
2023-04-18T07:15:04.788Z,17.87
2023-04-18T07:16:06.572Z,18.17
2023-04-18T07:17:08.107Z,17.80
2023-04-18T07:18:09.718Z,17.60
2023-04-18T07:19:11.468Z,18.50
2023-04-18T07:20:14.221Z,18.05
2023-04-18T07:21:16.080Z,17.33
2023-04-18T07:22:18.463Z,18.05
2023-04-18T07:23:20.004Z,18.60
2023-04-18T07:24:23.639Z,17.35
2023-04-18T07:25:25.224Z,18.05
2023-04-18T07:26:27.676Z,16.85
2023-04-18T07:27:29.237Z,17.70
2023-04-18T07:28:31.289Z,17.42
2023-04-18T07:29:33.077Z,17.67
2023-04-18T07:30:34.753Z,17.47
2023-04-18T07:31:36.440Z,16.93
2023-04-18T07:32:38.156Z,18.20
2023-04-18T07:33:40.079Z,16.52
2023-04-18T07:34:41.647Z,17.10
2023-04-18T07:35:46.084Z,17.10
2023-04-18T07:36:47.790Z,17.02
2023-04-18T07:37:49.485Z,16.50
2023-04-18T07:38:51.922Z,17.20
2023-04-18T07:39:53.556Z,16.53
2023-04-18T07:40:58.890Z,17.25
2023-04-18T07:42:00.649Z,16.90
2023-04-18T07:43:02.648Z,16.97
2023-04-18T07:44:04.528Z,17.95
2023-04-18T07:45:06.436Z,17.38
2023-04-18T07:46:08.161Z,17.53
2023-04-18T07:47:12.838Z,16.55
2023-04-18T07:48:14.724Z,18.13
2023-04-18T07:49:16.753Z,16.47
2023-04-18T07:50:19.329Z,16.80
2023-04-18T07:51:21.756Z,17.00
2023-04-18T07:52:23.372Z,16.40
2023-04-18T07:53:24.974Z,16.50
2023-04-18T07:54:26.738Z,17.97
2023-04-18T07:55:28.451Z,14.93
2023-04-18T07:56:30.033Z,16.00
2023-04-18T07:57:31.562Z,16.30
2023-04-18T07:58:36.269Z,16.97
2023-04-18T07:59:37.784Z,18.47
2023-04-18T08:00:39.720Z,16.87
2023-04-18T08:01:41.371Z,15.90
2023-04-18T08:02:43.394Z,16.60
2023-04-18T08:03:46.583Z,16.25
2023-04-18T08:04:50.046Z,16.07
2023-04-18T08:05:52.011Z,16.47
2023-04-18T08:06:53.915Z,17.60
2023-04-18T08:07:55.705Z,17.43
2023-04-18T08:08:59.206Z,17.63
2023-04-18T08:10:00.759Z,16.80
2023-04-18T08:11:02.505Z,18.13
2023-04-18T08:12:04.242Z,16.37
2023-04-18T08:13:06.637Z,16.07
2023-04-18T08:14:08.205Z,16.27
2023-04-18T08:15:09.988Z,17.38
2023-04-18T08:16:11.582Z,16.47
2023-04-18T08:17:13.182Z,16.35
2023-04-18T08:18:15.006Z,17.00
2023-04-18T08:19:16.703Z,16.63
2023-04-18T08:20:19.364Z,16.73
2023-04-18T08:21:21.155Z,16.70
2023-04-18T08:22:22.721Z,16.10
2023-04-18T08:23:24.455Z,16.40
2023-04-18T08:24:26.352Z,16.07
2023-04-18T08:25:27.948Z,17.60
2023-04-18T08:26:29.621Z,14.83
2023-04-18T08:27:31.595Z,16.73
2023-04-18T08:28:33.350Z,16.80
2023-04-18T08:29:34.962Z,17.55
2023-04-18T08:30:37.270Z,15.70
2023-04-18T08:31:39.256Z,17.13
2023-04-18T08:32:40.895Z,16.88
2023-04-18T08:33:42.906Z,16.70
2023-04-18T08:34:44.697Z,17.17
2023-04-18T08:35:46.294Z,16.27
2023-04-18T08:36:48.000Z,16.33
2023-04-18T08:37:50.229Z,16.93
2023-04-18T08:38:52.045Z,16.93
2023-04-18T08:39:53.832Z,18.23
2023-04-18T08:40:55.389Z,17.33
2023-04-18T08:41:59.624Z,17.10
2023-04-18T08:43:04.986Z,17.10
2023-04-18T08:44:06.762Z,15.60
2023-04-18T08:45:09.593Z,15.80
2023-04-18T08:46:11.272Z,16.83
2023-04-18T08:47:12.957Z,16.67
2023-04-18T08:48:18.021Z,16.10
2023-04-18T08:49:21.914Z,15.13
2023-04-18T08:50:23.591Z,14.80
2023-04-18T08:51:26.184Z,17.13
2023-04-18T08:52:29.518Z,16.25
2023-04-18T08:53:33.416Z,17.30
2023-04-18T08:54:37.295Z,15.25
2023-04-18T08:55:39.019Z,16.38
2023-04-18T08:56:41.149Z,17.00
2023-04-18T08:57:42.691Z,16.73
2023-04-18T08:58:45.189Z,16.73
2023-04-18T08:59:48.345Z,15.63
2023-04-18T09:00:52.917Z,17.45
2023-04-18T09:01:59.353Z,18.30
2023-04-18T09:03:03.106Z,16.83
2023-04-18T09:04:06.255Z,17.30
2023-04-18T09:05:14.811Z,16.67
2023-04-18T09:06:19.634Z,15.30
2023-04-18T09:07:28.490Z,15.80
2023-04-18T09:08:30.382Z,16.67
2023-04-18T09:09:44.211Z,16.70
2023-04-18T09:10:46.853Z,16.92
2023-04-18T09:11:48.611Z,16.50
2023-04-18T09:12:50.676Z,15.90
2023-04-18T09:13:53.177Z,16.63
2023-04-18T09:14:59.739Z,16.00
2023-04-18T09:16:01.354Z,16.30
2023-04-18T09:17:04.181Z,15.93
2023-04-18T09:18:10.609Z,15.77
2023-04-18T09:19:14.022Z,14.80
2023-04-18T09:20:25.918Z,14.97
2023-04-18T09:21:28.023Z,16.40
2023-04-18T09:22:50.444Z,18.52
2023-04-18T09:24:03.258Z,16.38
2023-04-18T09:25:05.088Z,16.37
2023-04-18T09:26:06.629Z,16.30
2023-04-18T09:27:12.177Z,15.13
2023-04-18T09:28:30.247Z,14.93
2023-04-18T09:29:49.726Z,15.10
2023-04-18T09:30:52.433Z,14.83
2023-04-18T09:31:54.853Z,14.87
2023-04-18T09:33:00.332Z,14.80
2023-04-18T09:34:03.197Z,15.00
2023-04-18T09:35:05.527Z,15.23
2023-04-18T09:36:21.040Z,15.50
2023-04-18T09:37:22.714Z,15.93
2023-04-18T09:38:41.192Z,16.07
2023-04-18T09:39:44.051Z,13.93
2023-04-18T09:40:45.726Z,14.80
2023-04-18T09:41:59.887Z,14.90
2023-04-18T09:43:01.475Z,14.80
2023-04-18T09:44:14.379Z,15.70
2023-04-18T09:45:16.712Z,14.43
2023-04-18T09:46:18.670Z,15.40
2023-04-18T09:47:20.956Z,14.33
2023-04-18T09:48:22.661Z,13.13
2023-04-18T09:49:24.186Z,13.93
2023-04-18T09:50:26.014Z,13.53
2023-04-18T09:51:28.160Z,14.10
2023-04-18T09:52:32.932Z,13.13
2023-04-18T09:53:38.156Z,14.87
2023-04-18T09:54:39.780Z,14.23
2023-04-18T09:55:42.385Z,14.40
2023-04-18T09:56:44.866Z,13.80
2023-04-18T09:57:47.730Z,14.70
2023-04-18T09:58:51.595Z,14.10
2023-04-18T10:00:21.454Z,15.50
2023-04-18T10:01:27.543Z,14.13
2023-04-18T10:02:32.225Z,16.30
2023-04-18T10:03:41.288Z,15.83
2023-04-18T10:04:44.231Z,24.70
2023-04-18T10:05:47.570Z,15.17
2023-04-18T10:06:49.408Z,15.43
2023-04-18T10:07:51.353Z,15.90
2023-04-18T10:08:54.431Z,30.17
2023-04-18T10:09:56.406Z,17.20
2023-04-18T10:10:58.796Z,15.23
2023-04-18T10:12:02.262Z,14.87
2023-04-18T10:13:05.630Z,19.67
2023-04-18T10:14:09.651Z,18.40
2023-04-18T10:15:11.949Z,17.33
2023-04-18T10:16:14.589Z,19.93
2023-04-18T10:17:16.278Z,32.67
2023-04-18T10:18:22.298Z,18.60
2023-04-18T10:19:25.201Z,20.67
2023-04-18T10:20:27.595Z,20.80
2023-04-18T10:21:29.526Z,20.57
2023-04-18T10:22:31.803Z,16.57
2023-04-18T10:23:35.477Z,23.50
2023-04-18T10:24:50.281Z,22.77
2023-04-18T10:25:52.114Z,17.63
2023-04-18T10:26:53.759Z,38.03
2023-04-18T10:27:56.637Z,18.93
2023-04-18T10:28:59.030Z,48.83
2023-04-18T10:30:00.702Z,18.40
2023-04-18T10:31:05.768Z,18.73
2023-04-18T10:32:07.612Z,18.27
2023-04-18T10:33:31.921Z,18.23
2023-04-18T10:34:36.693Z,23.80
2023-04-18T10:35:39.749Z,23.33
2023-04-18T10:37:02.828Z,24.00
2023-04-18T10:38:04.506Z,18.90
2023-04-18T10:39:22.773Z,17.60
2023-04-18T10:40:34.470Z,20.90
2023-04-18T10:41:48.899Z,18.93
2023-04-18T10:42:51.594Z,19.30
2023-04-18T10:44:13.128Z,17.80
2023-04-18T10:45:23.069Z,19.10
2023-04-18T10:46:31.782Z,16.83
2023-04-18T10:47:34.677Z,17.07
2023-04-18T10:48:39.201Z,15.87
2023-04-18T10:49:52.814Z,17.27
2023-04-18T10:51:14.221Z,22.40
2023-04-18T10:52:16.062Z,19.27
2023-04-18T10:53:17.653Z,17.10
2023-04-18T10:54:24.438Z,20.63
2023-04-18T10:55:26.843Z,17.30
2023-04-18T10:56:29.083Z,20.57
2023-04-18T10:57:39.849Z,16.97
2023-04-18T10:58:41.565Z,33.53
2023-04-18T10:59:44.131Z,28.83
2023-04-18T11:00:47.382Z,18.17
2023-04-18T11:01:49.802Z,17.70
2023-04-18T11:02:53.949Z,17.47
2023-04-18T11:03:56.493Z,17.50
2023-04-18T11:04:59.028Z,18.33
2023-04-18T11:06:04.078Z,17.37
2023-04-18T11:07:06.101Z,16.30
2023-04-18T11:08:22.098Z,16.30
2023-04-18T11:09:25.010Z,15.90
2023-04-18T11:10:27.170Z,24.23
2023-04-18T11:11:28.766Z,20.33
2023-04-18T11:12:34.217Z,18.00
2023-04-18T11:13:38.090Z,18.07
2023-04-18T11:14:43.733Z,16.47
2023-04-18T11:15:45.303Z,14.73
2023-04-18T11:16:47.131Z,18.00
2023-04-18T11:17:58.326Z,22.87
2023-04-18T11:19:00.217Z,19.57
2023-04-18T11:20:06.247Z,28.03
2023-04-18T11:21:07.988Z,18.53
2023-04-18T11:22:09.698Z,22.67
2023-04-18T11:23:23.888Z,16.70
2023-04-18T11:24:25.784Z,18.30
2023-04-18T11:25:28.861Z,30.70
2023-04-18T11:26:30.905Z,17.73
2023-04-18T11:27:32.888Z,16.63
2023-04-18T11:28:34.466Z,15.57
2023-04-18T11:29:36.138Z,16.97
2023-04-18T11:30:38.831Z,15.57
2023-04-18T11:31:41.647Z,14.97
2023-04-18T11:32:43.562Z,14.33
2023-04-18T11:33:47.278Z,16.23
2023-04-18T11:34:51.132Z,14.03
2023-04-18T11:35:56.797Z,15.97
2023-04-18T11:36:58.321Z,19.07
2023-04-18T11:38:00.662Z,17.10
2023-04-18T11:39:02.310Z,13.43
2023-04-18T11:40:04.867Z,14.60
2023-04-18T11:41:11.686Z,15.63
2023-04-18T11:42:13.401Z,15.50
2023-04-18T11:43:19.990Z,13.47
2023-04-18T11:44:25.630Z,11.43
2023-04-18T11:45:27.505Z,12.83
2023-04-18T11:46:37.807Z,14.30
2023-04-18T11:47:39.851Z,12.13
2023-04-18T11:48:42.511Z,12.17
2023-04-18T11:49:44.283Z,11.93
2023-04-18T11:50:45.934Z,11.70
2023-04-18T11:51:48.008Z,13.60
2023-04-18T11:52:50.458Z,15.77
2023-04-18T11:53:52.035Z,12.50
2023-04-18T11:54:54.079Z,13.30
2023-04-18T11:55:56.004Z,13.97
2023-04-18T11:56:57.953Z,15.00
2023-04-18T11:58:03.132Z,12.87
2023-04-18T11:59:10.685Z,13.60
2023-04-18T12:00:12.742Z,13.83
2023-04-18T12:01:17.281Z,11.80
2023-04-18T12:02:19.687Z,11.73
2023-04-18T12:03:22.982Z,16.60
2023-04-18T12:04:25.027Z,12.70
2023-04-18T12:05:27.264Z,15.23
2023-04-18T12:06:45.161Z,12.97
2023-04-18T12:07:47.897Z,13.37
2023-04-18T12:08:49.716Z,11.90
2023-04-18T12:09:52.290Z,11.00
2023-04-18T12:10:54.573Z,12.97
2023-04-18T12:12:03.290Z,13.60
2023-04-18T12:13:08.774Z,12.83
2023-04-18T12:14:21.728Z,15.10
2023-04-18T12:15:27.070Z,13.57
2023-04-18T12:16:28.705Z,20.03
2023-04-18T12:17:30.827Z,12.80
2023-04-18T12:18:32.516Z,13.03
2023-04-18T12:19:34.274Z,12.03
2023-04-18T12:20:36.925Z,11.70
2023-04-18T12:21:53.728Z,11.70
2023-04-18T12:22:55.675Z,13.00
2023-04-18T12:23:58.653Z,13.40
2023-04-18T12:25:29.599Z,14.30
2023-04-18T12:26:31.546Z,19.77
2023-04-18T12:27:48.223Z,13.20
2023-04-18T12:28:51.116Z,13.70
2023-04-18T12:29:52.653Z,14.50
2023-04-18T12:30:54.385Z,12.43
2023-04-18T12:31:56.160Z,14.10
2023-04-18T12:33:01.969Z,13.80
2023-04-18T12:34:03.549Z,12.23
2023-04-18T12:35:06.426Z,13.23
2023-04-18T12:36:11.186Z,12.63
2023-04-18T12:37:12.744Z,14.40
2023-04-18T12:38:14.332Z,12.23
2023-04-18T12:39:16.164Z,13.80
2023-04-18T12:40:19.193Z,12.30
2023-04-18T12:41:20.904Z,12.53
2023-04-18T12:42:23.145Z,12.07
2023-04-18T12:43:25.688Z,12.30
2023-04-18T12:44:27.308Z,12.70
2023-04-18T12:45:29.582Z,12.00
2023-04-18T12:46:31.468Z,13.00
2023-04-18T12:47:33.789Z,13.60
2023-04-18T12:48:35.300Z,12.57
2023-04-18T12:49:36.881Z,12.50
2023-04-18T12:50:38.822Z,13.67
2023-04-18T12:51:40.663Z,11.53
2023-04-18T12:52:42.406Z,13.10
2023-04-18T12:53:43.925Z,13.73
2023-04-18T12:54:45.572Z,13.20
2023-04-18T12:55:47.197Z,12.50
2023-04-18T12:56:48.762Z,13.53
2023-04-18T12:57:58.166Z,12.57
2023-04-18T12:58:59.964Z,12.77
2023-04-18T13:00:01.722Z,12.70
2023-04-18T13:01:04.898Z,11.40
2023-04-18T13:02:06.809Z,13.00
2023-04-18T13:03:11.612Z,12.80
2023-04-18T13:04:14.918Z,13.13
2023-04-18T13:05:17.907Z,12.30
2023-04-18T13:06:19.526Z,11.90
2023-04-18T13:07:21.804Z,11.67
2023-04-18T13:08:23.648Z,12.80
2023-04-18T13:09:26.889Z,12.47
2023-04-18T13:10:28.493Z,12.87
2023-04-18T13:11:30.324Z,12.67
2023-04-18T13:12:31.906Z,13.23
2023-04-18T13:13:35.182Z,14.13
2023-04-18T13:14:37.480Z,12.03
2023-04-18T13:15:39.082Z,11.43
2023-04-18T13:16:43.566Z,12.97
2023-04-18T13:17:45.531Z,11.70
2023-04-18T13:18:47.105Z,11.50
2023-04-18T13:19:49.057Z,11.00
2023-04-18T13:20:50.728Z,10.40
2023-04-18T13:21:53.382Z,11.10
2023-04-18T13:22:55.016Z,10.63
2023-04-18T13:23:56.499Z,11.30
2023-04-18T13:24:58.059Z,10.67
2023-04-18T13:25:59.623Z,10.20
2023-04-18T13:27:02.444Z,11.27
2023-04-18T13:28:03.965Z,11.97
2023-04-18T13:29:05.744Z,11.27
2023-04-18T13:30:08.129Z,10.50